Jessica S. Settoon — WDD9545 — position and weather

sailwx.info

Track history (hours):
 
Tides and Currents Weather Stations Pressure Air Temp Water Temp Dewpoint Dewpoint Depression Visibility Wind Speed Wind Dir Waves Ship Positions

Jessica S. Settoon

Owner: Settoon Towing LLC, Houma, LA. More information available from US FCC via Universal Licensing System and Coast Guard Vessel Documentation Center.

Last reported at 2017-Aug-15 09:29 UTC. Time now 2017-Aug-19 15:05 UTC.
Position N 29°36' W 090°58'.

Length 17 m; draft 3 m.

Type: Tug. MMSI: 367312940.

Date/timePositionNaut miles runAvg speedWind from/ knotsBaromVisibWave heightAir tempDewpointWater temp
2017-Aug-15 09:29N 29°36' W 090°58'3 5.5
2017-Aug-15 09:00N 29°34' W 090°56'3 5.8
2017-Aug-15 08:30N 29°32' W 090°53'3 5.5
2017-Aug-15 08:00N 29°32' W 090°50'3 5.6
2017-Aug-15 07:30N 29°32' W 090°47'3 5.0
2017-Aug-15 07:00N 29°34' W 090°44'2 3.8
2017-Aug-15 06:30N 29°35' W 090°43'2 3.7
2017-Aug-15 06:00N 29°37' W 090°42'3 5.1
2017-Aug-15 05:30N 29°36' W 090°39'3 5.1
2017-Aug-15 05:00N 29°35' W 090°36'3 5.1
2017-Aug-15 04:30N 29°34' W 090°33'3 5.0
2017-Aug-15 03:59N 29°34' W 090°30'5 0.3
2017-Aug-14 09:48N 29°33' W 090°24'0 0.7
2017-Aug-14 09:28N 29°33' W 090°25'2 4.0
2017-Aug-14 09:00N 29°33' W 090°27'3 6.8
2017-Aug-14 08:30N 29°34' W 090°30'3 6.7
2017-Aug-14 08:00N 29°34' W 090°34'3 5.6
2017-Aug-14 07:30N 29°35' W 090°37'3 6.3
2017-Aug-14 07:00N 29°36' W 090°41'2 3.7
2017-Aug-14 06:30N 29°36' W 090°43'2 4.8
2017-Aug-14 06:00N 29°34' W 090°44'3 6.1
2017-Aug-14 05:30N 29°32' W 090°47'9 1.4
2017-Aug-13 23:37N 29°34' W 090°57'1 5.7
2017-Aug-13 23:26N 29°34' W 090°56'2 5.6
2017-Aug-13 22:59N 29°33' W 090°53'3 5.3
2017-Aug-13 22:30N 29°32' W 090°50'3 5.6
2017-Aug-13 22:00N 29°32' W 090°47'2 4.9
2017-Aug-13 21:30N 29°34' W 090°45'2 3.8
2017-Aug-13 21:00N 29°34' W 090°43'3 5.3
2017-Aug-13 20:30N 29°31' W 090°42'3 5.8
2017-Aug-13 19:59N 29°28' W 090°43'3 5.8
2017-Aug-13 19:30N 29°26' W 090°43'12 0.7
2017-Aug-13 02:52N 29°23' W 090°57'0 0.0
2017-Aug-13 01:37N 29°23' W 090°57'1 0.1
2017-Aug-12 21:07N 29°22' W 090°57'0 0.3
2017-Aug-12 21:00N 29°22' W 090°57'6 3.3
2017-Aug-12 19:15N 29°24' W 090°51'1 4.2
2017-Aug-12 18:58N 29°25' W 090°50'3 4.2
2017-Aug-12 18:21N 29°25' W 090°47'3 4.3
2017-Aug-12 17:41N 29°24' W 090°44'1 6.6
2017-Aug-12 17:30N 29°25' W 090°44'4 7.1
2017-Aug-12 17:00N 29°28' W 090°43'4 7.2
2017-Aug-12 16:30N 29°32' W 090°42'3 6.2
2017-Aug-12 16:00N 29°35' W 090°43'0 0.1
2017-Aug-12 15:30N 29°35' W 090°43'0 0.0
2017-Aug-12 15:00N 29°35' W 090°43'0 0.0
2017-Aug-12 14:30N 29°35' W 090°43'0 0.0
2017-Aug-12 14:00N 29°35' W 090°43'0 0.0
2017-Aug-12 13:30N 29°35' W 090°43'0 0.0
2017-Aug-12 13:00N 29°35' W 090°43'0 0.0
2017-Aug-12 12:30N 29°35' W 090°43'0 0.0
2017-Aug-12 12:00N 29°35' W 090°43'0 0.0
2017-Aug-12 11:30N 29°35' W 090°43'0 0.0
2017-Aug-12 11:00N 29°35' W 090°43'0 0.0
2017-Aug-12 10:30N 29°35' W 090°43'0 0.0
2017-Aug-12 10:00N 29°35' W 090°43'0 0.0
2017-Aug-12 09:30N 29°35' W 090°43'0 0.0
2017-Aug-12 09:00N 29°35' W 090°43'0 0.0
2017-Aug-12 08:30N 29°35' W 090°43'0 0.0
2017-Aug-12 08:00N 29°35' W 090°43'0 0.0
2017-Aug-12 07:30N 29°35' W 090°43'0 0.0
2017-Aug-12 07:00N 29°35' W 090°43'0 0.0
2017-Aug-12 06:30N 29°35' W 090°43'0 0.0
2017-Aug-12 06:00N 29°35' W 090°43'0 0.0
2017-Aug-12 05:30N 29°35' W 090°43'0 0.0
2017-Aug-12 05:00N 29°35' W 090°43'0 0.0
2017-Aug-12 04:30N 29°35' W 090°43'0 0.0
2017-Aug-12 04:00N 29°35' W 090°43'0 0.0
2017-Aug-12 03:30N 29°35' W 090°43'0 0.0
2017-Aug-12 03:00N 29°35' W 090°43'0 0.0
2017-Aug-12 02:30N 29°35' W 090°43'0 0.0
2017-Aug-12 02:00N 29°35' W 090°43'0 0.0
2017-Aug-12 01:30N 29°35' W 090°43'0 0.0
2017-Aug-12 01:00N 29°35' W 090°43'0 0.0
2017-Aug-12 00:30N 29°35' W 090°43'0 0.0
2017-Aug-12 00:00N 29°35' W 090°43'0 0.0
2017-Aug-11 23:30N 29°35' W 090°43'0 0.0
2017-Aug-11 23:00N 29°35' W 090°43'0 0.0
2017-Aug-11 22:30N 29°35' W 090°43'0 0.0
2017-Aug-11 22:00N 29°35' W 090°43'0 0.0
2017-Aug-11 21:30N 29°35' W 090°43'0 0.2
2017-Aug-11 21:00N 29°35' W 090°43'0 0.0
2017-Aug-11 20:30N 29°35' W 090°43'0 0.2
2017-Aug-11 20:00N 29°35' W 090°43'2 3.9
2017-Aug-11 19:30N 29°37' W 090°42'2 3.4
2017-Aug-11 19:00N 29°36' W 090°41'3 5.3
2017-Aug-11 18:30N 29°35' W 090°38'3 5.2
2017-Aug-11 18:00N 29°35' W 090°35'3 5.8
2017-Aug-11 17:30N 29°34' W 090°32'  
2017-Aug-09 08:07N 29°33' W 090°25'1 6.7
2017-Aug-09 07:57N 29°33' W 090°26'3 6.7
2017-Aug-09 07:30N 29°34' W 090°29'3 6.7
2017-Aug-09 07:00N 29°34' W 090°33'3 6.4
2017-Aug-09 06:30N 29°35' W 090°37'3 6.5
2017-Aug-09 06:00N 29°36' W 090°40'2 4.5
2017-Aug-09 05:30N 29°36' W 090°43'1 1.9
2017-Aug-09 05:00N 29°35' W 090°43'1 2.6
2017-Aug-09 04:30N 29°34' W 090°44'3 6.1
2017-Aug-09 04:00N 29°32' W 090°47'  
2017-Aug-06 00:34N 29°36' W 090°58'2 5.8
2017-Aug-06 00:16N 29°34' W 090°57'5 6.1
2017-Aug-05 23:31N 29°32' W 090°52'0 6.0
2017-Aug-05 23:26N 29°32' W 090°52'3 6.0
2017-Aug-05 23:00N 29°32' W 090°49'3 5.4
2017-Aug-05 22:30N 29°33' W 090°46'3 5.2
2017-Aug-05 22:00N 29°34' W 090°43'2 4.6
2017-Aug-05 21:30N 29°32' W 090°42'3 5.9
2017-Aug-05 21:00N 29°29' W 090°43'3 6.1
2017-Aug-05 20:30N 29°26' W 090°43'  
Track history (hours):
 
Tides and Currents Weather Stations Pressure Air Temp Water Temp Dewpoint Dewpoint Depression Visibility Wind Speed Wind Dir Waves Ship Positions

Jessica S. Settoon

Owner: Settoon Towing LLC, Houma, LA. More information available from US FCC via Universal Licensing System and Coast Guard Vessel Documentation Center.

Last reported at 2017-Aug-15 09:29 UTC. Time now 2017-Aug-19 15:05 UTC.
Position N 29°36' W 090°58'.

Length 17 m; draft 3 m.

Type: Tug. MMSI: 367312940.

Date/timePositionNaut miles runAvg speedWind from/ knotsBaromVisibWave heightAir tempDewpointWater temp
2017-Aug-15 09:29N 29°36' W 090°58'3 5.5
2017-Aug-15 09:00N 29°34' W 090°56'3 5.8
2017-Aug-15 08:30N 29°32' W 090°53'3 5.5
2017-Aug-15 08:00N 29°32' W 090°50'3 5.6
2017-Aug-15 07:30N 29°32' W 090°47'3 5.0
2017-Aug-15 07:00N 29°34' W 090°44'2 3.8
2017-Aug-15 06:30N 29°35' W 090°43'2 3.7
2017-Aug-15 06:00N 29°37' W 090°42'3 5.1
2017-Aug-15 05:30N 29°36' W 090°39'3 5.1
2017-Aug-15 05:00N 29°35' W 090°36'3 5.1
2017-Aug-15 04:30N 29°34' W 090°33'3 5.0
2017-Aug-15 03:59N 29°34' W 090°30'5 0.3
2017-Aug-14 09:48N 29°33' W 090°24'0 0.7
2017-Aug-14 09:28N 29°33' W 090°25'2 4.0
2017-Aug-14 09:00N 29°33' W 090°27'3 6.8
2017-Aug-14 08:30N 29°34' W 090°30'3 6.7
2017-Aug-14 08:00N 29°34' W 090°34'3 5.6
2017-Aug-14 07:30N 29°35' W 090°37'3 6.3
2017-Aug-14 07:00N 29°36' W 090°41'2 3.7
2017-Aug-14 06:30N 29°36' W 090°43'2 4.8
2017-Aug-14 06:00N 29°34' W 090°44'3 6.1
2017-Aug-14 05:30N 29°32' W 090°47'9 1.4
2017-Aug-13 23:37N 29°34' W 090°57'1 5.7
2017-Aug-13 23:26N 29°34' W 090°56'2 5.6
2017-Aug-13 22:59N 29°33' W 090°53'3 5.3
2017-Aug-13 22:30N 29°32' W 090°50'3 5.6
2017-Aug-13 22:00N 29°32' W 090°47'2 4.9
2017-Aug-13 21:30N 29°34' W 090°45'2 3.8
2017-Aug-13 21:00N 29°34' W 090°43'3 5.3
2017-Aug-13 20:30N 29°31' W 090°42'3 5.8
2017-Aug-13 19:59N 29°28' W 090°43'3 5.8
2017-Aug-13 19:30N 29°26' W 090°43'12 0.7
2017-Aug-13 02:52N 29°23' W 090°57'0 0.0
2017-Aug-13 01:37N 29°23' W 090°57'1 0.1
2017-Aug-12 21:07N 29°22' W 090°57'0 0.3
2017-Aug-12 21:00N 29°22' W 090°57'6 3.3
2017-Aug-12 19:15N 29°24' W 090°51'1 4.2
2017-Aug-12 18:58N 29°25' W 090°50'3 4.2
2017-Aug-12 18:21N 29°25' W 090°47'3 4.3
2017-Aug-12 17:41N 29°24' W 090°44'1 6.6
2017-Aug-12 17:30N 29°25' W 090°44'4 7.1
2017-Aug-12 17:00N 29°28' W 090°43'4 7.2
2017-Aug-12 16:30N 29°32' W 090°42'3 6.2
2017-Aug-12 16:00N 29°35' W 090°43'0 0.1
2017-Aug-12 15:30N 29°35' W 090°43'0 0.0
2017-Aug-12 15:00N 29°35' W 090°43'0 0.0
2017-Aug-12 14:30N 29°35' W 090°43'0 0.0
2017-Aug-12 14:00N 29°35' W 090°43'0 0.0
2017-Aug-12 13:30N 29°35' W 090°43'0 0.0
2017-Aug-12 13:00N 29°35' W 090°43'0 0.0
2017-Aug-12 12:30N 29°35' W 090°43'0 0.0
2017-Aug-12 12:00N 29°35' W 090°43'0 0.0
2017-Aug-12 11:30N 29°35' W 090°43'0 0.0
2017-Aug-12 11:00N 29°35' W 090°43'0 0.0
2017-Aug-12 10:30N 29°35' W 090°43'0 0.0
2017-Aug-12 10:00N 29°35' W 090°43'0 0.0
2017-Aug-12 09:30N 29°35' W 090°43'0 0.0
2017-Aug-12 09:00N 29°35' W 090°43'0 0.0
2017-Aug-12 08:30N 29°35' W 090°43'0 0.0
2017-Aug-12 08:00N 29°35' W 090°43'0 0.0
2017-Aug-12 07:30N 29°35' W 090°43'0 0.0
2017-Aug-12 07:00N 29°35' W 090°43'0 0.0
2017-Aug-12 06:30N 29°35' W 090°43'0 0.0
2017-Aug-12 06:00N 29°35' W 090°43'0 0.0
2017-Aug-12 05:30N 29°35' W 090°43'0 0.0
2017-Aug-12 05:00N 29°35' W 090°43'0 0.0
2017-Aug-12 04:30N 29°35' W 090°43'0 0.0
2017-Aug-12 04:00N 29°35' W 090°43'0 0.0
2017-Aug-12 03:30N 29°35' W 090°43'0 0.0
2017-Aug-12 03:00N 29°35' W 090°43'0 0.0
2017-Aug-12 02:30N 29°35' W 090°43'0 0.0
2017-Aug-12 02:00N 29°35' W 090°43'0 0.0
2017-Aug-12 01:30N 29°35' W 090°43'0 0.0
2017-Aug-12 01:00N 29°35' W 090°43'0 0.0
2017-Aug-12 00:30N 29°35' W 090°43'0 0.0
2017-Aug-12 00:00N 29°35' W 090°43'0 0.0
2017-Aug-11 23:30N 29°35' W 090°43'0 0.0
2017-Aug-11 23:00N 29°35' W 090°43'0 0.0
2017-Aug-11 22:30N 29°35' W 090°43'0 0.0
2017-Aug-11 22:00N 29°35' W 090°43'0 0.0
2017-Aug-11 21:30N 29°35' W 090°43'0 0.2
2017-Aug-11 21:00N 29°35' W 090°43'0 0.0
2017-Aug-11 20:30N 29°35' W 090°43'0 0.2
2017-Aug-11 20:00N 29°35' W 090°43'2 3.9
2017-Aug-11 19:30N 29°37' W 090°42'2 3.4
2017-Aug-11 19:00N 29°36' W 090°41'3 5.3
2017-Aug-11 18:30N 29°35' W 090°38'3 5.2
2017-Aug-11 18:00N 29°35' W 090°35'3 5.8
2017-Aug-11 17:30N 29°34' W 090°32'  
2017-Aug-09 08:07N 29°33' W 090°25'1 6.7
2017-Aug-09 07:57N 29°33' W 090°26'3 6.7
2017-Aug-09 07:30N 29°34' W 090°29'3 6.7
2017-Aug-09 07:00N 29°34' W 090°33'3 6.4
2017-Aug-09 06:30N 29°35' W 090°37'3 6.5
2017-Aug-09 06:00N 29°36' W 090°40'2 4.5
2017-Aug-09 05:30N 29°36' W 090°43'1 1.9
2017-Aug-09 05:00N 29°35' W 090°43'1 2.6
2017-Aug-09 04:30N 29°34' W 090°44'3 6.1
2017-Aug-09 04:00N 29°32' W 090°47'  
2017-Aug-06 00:34N 29°36' W 090°58'2 5.8
2017-Aug-06 00:16N 29°34' W 090°57'5 6.1
2017-Aug-05 23:31N 29°32' W 090°52'0 6.0
2017-Aug-05 23:26N 29°32' W 090°52'3 6.0
2017-Aug-05 23:00N 29°32' W 090°49'3 5.4
2017-Aug-05 22:30N 29°33' W 090°46'3 5.2
2017-Aug-05 22:00N 29°34' W 090°43'2 4.6
2017-Aug-05 21:30N 29°32' W 090°42'3 5.9
2017-Aug-05 21:00N 29°29' W 090°43'3 6.1
2017-Aug-05 20:30N 29°26' W 090°43'  

Dump ship's entire track history